createdAt,value
2022-08-25T00:01:27.537Z,22.6
2022-08-25T00:03:35.931Z,22.5
2022-08-25T00:05:41.658Z,22.5
2022-08-25T00:07:47.188Z,22.5
2022-08-25T00:09:52.956Z,22.5
2022-08-25T00:11:58.736Z,22.5
2022-08-25T00:14:04.513Z,22.5
2022-08-25T00:16:10.397Z,22.4
2022-08-25T00:18:20.017Z,22.4
2022-08-25T00:20:24.801Z,22.5
2022-08-25T00:24:36.368Z,22.4
2022-08-25T00:25:40.732Z,22.3
2022-08-25T00:27:46.612Z,22.3
2022-08-25T00:29:52.305Z,22.2
2022-08-25T00:31:58.094Z,22.2
2022-08-25T00:34:07.765Z,22.2
2022-08-25T00:36:13.587Z,22.2
2022-08-25T00:38:19.312Z,22.2
2022-08-25T00:40:26.796Z,22.2
2022-08-25T00:42:32.482Z,22.2
2022-08-25T00:44:38.205Z,22.2
2022-08-25T00:46:44.121Z,22.1
2022-08-25T00:48:52.765Z,22.1
2022-08-25T00:50:58.515Z,22.1
2022-08-25T00:53:04.316Z,22.1
2022-08-25T00:55:10.104Z,22
2022-08-25T00:57:15.850Z,22
2022-08-25T00:59:21.626Z,22
2022-08-25T01:01:27.479Z,21.9
2022-08-25T01:03:36.176Z,21.9
2022-08-25T01:11:59.720Z,21.8
2022-08-25T01:16:11.327Z,21.7
2022-08-25T01:18:20.052Z,21.7
2022-08-25T01:20:29.315Z,21.7
2022-08-25T01:23:36.017Z,21.7
2022-08-25T01:25:41.788Z,21.7
2022-08-25T01:27:47.553Z,21.7
2022-08-25T01:29:53.349Z,21.7
2022-08-25T01:32:02.144Z,21.7
2022-08-25T01:34:07.924Z,21.6
2022-08-25T01:36:13.691Z,21.6
2022-08-25T01:38:19.486Z,21.5
2022-08-25T01:40:25.425Z,21.5
2022-08-25T01:42:31.052Z,21.4
2022-08-25T01:44:36.842Z,21.5
2022-08-25T01:46:45.624Z,21.4
2022-08-25T01:48:51.399Z,21.4
2022-08-25T01:50:57.201Z,21.4
2022-08-25T01:53:02.990Z,21.3
2022-08-25T01:55:08.759Z,21.3
2022-08-25T01:57:14.570Z,21.3
2022-08-25T01:59:24.109Z,21.3
2022-08-25T02:01:29.168Z,21.2
2022-08-25T02:03:34.911Z,21.2
2022-08-25T02:05:40.721Z,21.2
2022-08-25T02:07:46.499Z,21.2
2022-08-25T02:09:52.286Z,21.1
2022-08-25T02:11:58.426Z,21.1
2022-08-25T02:14:03.872Z,21.1
2022-08-25T02:16:12.716Z,21
2022-08-25T02:18:18.409Z,21
2022-08-25T02:20:24.189Z,21
2022-08-25T02:21:28.590Z,21.1
2022-08-25T02:27:45.954Z,21.1
2022-08-25T02:40:23.736Z,21.1
2022-08-25T02:44:38.221Z,21.1
2022-08-25T02:46:44.019Z,21.1
2022-08-25T02:48:49.798Z,21.1
2022-08-25T02:50:55.586Z,21.1
2022-08-25T02:53:01.363Z,21.1
2022-08-25T02:55:07.155Z,21.2
2022-08-25T02:57:12.927Z,21.2
2022-08-25T03:03:37.528Z,21.1
2022-08-25T03:07:45.052Z,21
2022-08-25T03:11:56.470Z,21
2022-08-25T03:14:05.216Z,20.9
2022-08-25T03:16:12.287Z,20.9
2022-08-25T03:18:16.799Z,20.9
2022-08-25T03:20:37.123Z,20.9
2022-08-25T03:22:42.921Z,20.9
2022-08-25T03:24:48.726Z,20.8
2022-08-25T03:26:57.477Z,20.8
2022-08-25T03:29:03.262Z,20.8
2022-08-25T03:31:09.051Z,20.8
2022-08-25T03:39:32.227Z,20.7
2022-08-25T03:41:41.020Z,20.6
2022-08-25T03:45:52.650Z,20.6
2022-08-25T03:56:24.529Z,20.5
2022-08-25T03:58:30.339Z,20.5
2022-08-25T04:00:36.144Z,20.5
2022-08-25T04:02:42.022Z,20.5
2022-08-25T04:06:53.521Z,20.4
2022-08-25T04:13:13.887Z,20.3
2022-08-25T04:16:24.092Z,20.2
2022-08-25T04:18:29.879Z,20.2
2022-08-25T04:22:41.427Z,20.1
2022-08-25T04:24:50.200Z,20.1
2022-08-25T04:26:56.000Z,20.1
2022-08-25T04:29:01.796Z,20.1
2022-08-25T04:31:07.583Z,20.1
2022-08-25T04:33:13.368Z,20
2022-08-25T04:37:24.951Z,20.1
2022-08-25T04:39:33.701Z,20
2022-08-25T04:43:45.298Z,20
2022-08-25T04:45:51.157Z,19.9
2022-08-25T04:47:56.913Z,19.9
2022-08-25T04:50:02.767Z,19.9
2022-08-25T04:52:13.174Z,19.9
2022-08-25T04:54:17.267Z,19.9
2022-08-25T04:56:23.035Z,19.9
2022-08-25T04:58:28.840Z,19.9
2022-08-25T05:00:34.714Z,19.9
2022-08-25T05:04:46.325Z,19.9
2022-08-25T05:06:52.080Z,20
2022-08-25T05:09:00.882Z,20.1
2022-08-25T05:13:12.464Z,20.2
2022-08-25T05:14:17.590Z,20.2
2022-08-25T05:16:23.684Z,20.2
2022-08-25T05:18:29.205Z,20.3
2022-08-25T05:20:35.005Z,20.4
2022-08-25T05:22:43.760Z,20.4
2022-08-25T05:24:49.580Z,20.5
2022-08-25T05:26:55.401Z,20.5
2022-08-25T05:29:01.188Z,20.6
2022-08-25T05:31:07.009Z,20.7
2022-08-25T05:33:12.806Z,20.7
2022-08-25T05:37:27.356Z,20.8
2022-08-25T05:39:33.141Z,20.9
2022-08-25T05:41:38.953Z,21.1
2022-08-25T05:43:44.768Z,21.2
2022-08-25T05:47:56.373Z,21.5
2022-08-25T05:50:02.197Z,21.6
2022-08-25T05:52:14.271Z,21.9
2022-08-25T05:54:16.726Z,22
2022-08-25T05:56:22.495Z,22.1
2022-08-25T05:58:28.313Z,22.3
2022-08-25T06:00:34.115Z,22.4
2022-08-25T06:02:39.905Z,22.2
2022-08-25T06:04:45.693Z,22.4
2022-08-25T06:06:54.519Z,22.6
2022-08-25T06:09:00.250Z,22.6
2022-08-25T06:11:06.046Z,22.8
2022-08-25T06:12:10.622Z,22.9
2022-08-25T06:14:16.241Z,23
2022-08-25T06:16:22.086Z,23.1
2022-08-25T06:18:27.788Z,23.1
2022-08-25T06:20:36.570Z,25.5
2022-08-25T06:22:42.337Z,26.6
2022-08-25T06:24:48.116Z,27.1
2022-08-25T06:26:53.874Z,27.5
2022-08-25T06:28:59.612Z,28
2022-08-25T06:31:05.446Z,28.2
2022-08-25T06:33:11.096Z,29.3
2022-08-25T06:37:25.520Z,30.4
2022-08-25T06:39:31.239Z,30.8
2022-08-25T06:41:37.328Z,30.4
2022-08-25T06:43:48.965Z,29.8
2022-08-25T06:47:55.509Z,30.4
2022-08-25T06:50:04.179Z,30.9
2022-08-25T06:52:09.796Z,31.1
2022-08-25T06:54:15.417Z,31.5
2022-08-25T06:56:21.031Z,32.1
2022-08-25T06:58:26.636Z,32.2
2022-08-25T07:00:32.343Z,31
2022-08-25T07:02:37.879Z,30.6
2022-08-25T07:04:46.430Z,31.2
2022-08-25T07:06:52.017Z,31.2
2022-08-25T07:08:57.561Z,31.7
2022-08-25T07:11:28.525Z,33
2022-08-25T07:13:34.042Z,32.7
2022-08-25T07:15:39.592Z,32.9
2022-08-25T07:17:48.173Z,32.8
2022-08-25T07:19:57.660Z,33
2022-08-25T07:28:15.665Z,32.4
2022-08-25T07:30:21.184Z,31.4
2022-08-25T07:32:29.674Z,30.7
2022-08-25T07:34:35.144Z,31
2022-08-25T07:38:46.109Z,32
2022-08-25T07:40:53.389Z,32.1
2022-08-25T07:42:57.069Z,33
2022-08-25T07:45:02.563Z,32.2
2022-08-25T07:47:11.078Z,31.4
2022-08-25T07:49:17.223Z,31.3
2022-08-25T07:51:22.031Z,31.4
2022-08-25T07:53:27.671Z,31.2
2022-08-25T07:59:43.853Z,32.7
2022-08-25T08:01:52.459Z,31.9
2022-08-25T08:04:01.562Z,31.5
2022-08-25T08:06:03.227Z,30.8
2022-08-25T08:13:23.827Z,30.1
2022-08-25T08:15:32.327Z,30.3
2022-08-25T08:19:45.294Z,30.2
2022-08-25T08:21:48.698Z,30.4
2022-08-25T08:23:58.589Z,30
2022-08-25T08:25:59.594Z,30
2022-08-25T08:28:05.130Z,29.8
2022-08-25T08:30:13.549Z,29.7
2022-08-25T08:34:25.133Z,29.8
2022-08-25T08:38:35.385Z,29.8
2022-08-25T08:40:40.865Z,29.8
2022-08-25T08:42:46.886Z,30.3
2022-08-25T08:44:57.065Z,30
2022-08-25T08:47:00.269Z,30.3
2022-08-25T08:49:05.761Z,30.5
2022-08-25T08:51:11.212Z,30.4
2022-08-25T08:53:16.660Z,30.5
2022-08-25T08:57:27.583Z,31.1
2022-08-25T09:01:41.563Z,31.3
2022-08-25T09:03:46.994Z,31.5
2022-08-25T09:04:51.220Z,31.4
2022-08-25T09:06:56.678Z,31.3
2022-08-25T09:09:02.132Z,31.5
2022-08-25T09:15:21.457Z,30.8
2022-08-25T09:17:26.889Z,31.3
2022-08-25T09:19:32.327Z,30.8
2022-08-25T09:21:37.770Z,30.5
2022-08-25T09:23:43.210Z,30.6
2022-08-25T09:25:53.268Z,30.7
2022-08-25T09:27:57.157Z,30.7
2022-08-25T09:30:05.185Z,30.6
2022-08-25T09:32:08.061Z,30.6
2022-08-25T09:34:13.524Z,31.1
2022-08-25T09:38:24.432Z,31.6
2022-08-25T09:40:29.958Z,32
2022-08-25T09:44:43.913Z,32.8
2022-08-25T09:48:56.430Z,32.5
2022-08-25T09:53:07.406Z,31.5
2022-08-25T09:55:13.141Z,31.6
2022-08-25T09:57:19.568Z,32.1
2022-08-25T09:59:30.830Z,32.3
2022-08-25T10:01:32.093Z,32.2
2022-08-25T10:02:34.725Z,32
2022-08-25T10:04:40.412Z,31.7
2022-08-25T10:06:45.761Z,31.4
2022-08-25T10:08:51.076Z,32
2022-08-25T10:10:59.545Z,31.9
2022-08-25T10:13:06.409Z,31.9
2022-08-25T10:19:21.338Z,31.9
2022-08-25T10:23:32.248Z,32.1
2022-08-25T10:29:51.662Z,32.4
2022-08-25T10:34:02.681Z,32.2
2022-08-25T10:36:08.018Z,32.1
2022-08-25T10:38:13.460Z,32.1
2022-08-25T10:40:22.048Z,32.8
2022-08-25T10:42:27.407Z,32.8
2022-08-25T10:44:32.859Z,32.6
2022-08-25T10:46:38.340Z,32.1
2022-08-25T10:48:43.719Z,32
2022-08-25T10:55:03.092Z,32.5
2022-08-25T10:57:08.565Z,32.8
2022-08-25T10:59:13.982Z,33.2
2022-08-25T11:01:44.790Z,32.9
2022-08-25T11:03:50.183Z,32.8
2022-08-25T11:05:55.604Z,32.6
2022-08-25T11:08:04.084Z,32.6
2022-08-25T11:10:09.499Z,32.5
2022-08-25T11:12:14.914Z,32.8
2022-08-25T11:14:20.332Z,32.8
2022-08-25T11:16:25.830Z,32.7
2022-08-25T11:18:31.156Z,32.7
2022-08-25T11:20:36.583Z,32.7
2022-08-25T11:22:45.044Z,33
2022-08-25T11:24:50.504Z,32.9
2022-08-25T11:26:56.026Z,33.4
2022-08-25T11:29:01.313Z,33.3
2022-08-25T11:31:06.782Z,33.2
2022-08-25T11:33:12.111Z,32.7
2022-08-25T11:35:17.542Z,32.4
2022-08-25T11:37:25.962Z,32.5
2022-08-25T11:39:33.047Z,32.6
2022-08-25T11:41:36.782Z,32.3
2022-08-25T11:43:42.209Z,32.6
2022-08-25T11:45:47.690Z,32.9
2022-08-25T11:47:53.071Z,33.5
2022-08-25T11:49:58.535Z,33.2
2022-08-25T11:52:07.025Z,32.7
2022-08-25T11:54:12.472Z,32.7
2022-08-25T11:56:17.959Z,32.8
2022-08-25T11:59:27.657Z,32.9
2022-08-25T12:01:33.144Z,33.1
2022-08-25T12:03:38.665Z,33.5
2022-08-25T12:07:52.643Z,32.9
2022-08-25T12:09:58.144Z,32.9
2022-08-25T12:12:03.635Z,32.8
2022-08-25T12:14:09.121Z,32.7
2022-08-25T12:16:14.705Z,32.4
2022-08-25T12:18:20.129Z,32.6
2022-08-25T12:20:28.683Z,32.8
2022-08-25T12:22:34.222Z,32.7
2022-08-25T12:24:39.724Z,32.7
2022-08-25T12:26:46.565Z,32.6
2022-08-25T12:28:50.772Z,32.8
2022-08-25T12:30:56.355Z,32.8
2022-08-25T12:35:10.386Z,32.9
2022-08-25T12:39:24.379Z,32.8
2022-08-25T12:41:26.963Z,33.2
2022-08-25T12:43:37.219Z,33.3
2022-08-25T12:45:39.659Z,33.2
2022-08-25T12:47:45.107Z,33.2
2022-08-25T12:49:53.671Z,33.2
2022-08-25T12:51:59.298Z,33.1
2022-08-25T12:54:09.941Z,33.2
2022-08-25T12:55:08.996Z,33.2
2022-08-25T12:57:14.504Z,33.2
2022-08-25T12:59:20.043Z,33
2022-08-25T13:01:35.349Z,33.2
2022-08-25T13:03:34.270Z,33
2022-08-25T13:05:39.641Z,33.2
2022-08-25T13:07:45.171Z,33.2
2022-08-25T13:09:50.680Z,32.9
2022-08-25T13:11:56.547Z,32.6
2022-08-25T13:14:01.802Z,32.9
2022-08-25T13:16:07.562Z,32.9
2022-08-25T13:18:15.871Z,32.9
2022-08-25T13:20:21.376Z,32.8
2022-08-25T13:22:26.928Z,33
2022-08-25T13:24:32.447Z,33.4
2022-08-25T13:26:37.987Z,33.7
2022-08-25T13:28:43.535Z,33.2
2022-08-25T13:30:49.036Z,33.3
2022-08-25T13:32:57.629Z,33.2
2022-08-25T13:35:03.173Z,33.2
2022-08-25T13:37:08.676Z,33.1
2022-08-25T13:39:14.206Z,33.1
2022-08-25T13:41:19.743Z,33.2
2022-08-25T13:43:27.618Z,33.1
2022-08-25T13:45:31.977Z,33.3
2022-08-25T13:47:43.705Z,33.2
2022-08-25T13:49:44.885Z,33.3
2022-08-25T13:51:50.406Z,33.8
2022-08-25T13:52:54.681Z,34.2
2022-08-25T13:55:00.215Z,34.1
2022-08-25T13:59:11.257Z,33.6
2022-08-25T14:01:44.137Z,33.1
2022-08-25T14:05:30.854Z,33.5
2022-08-25T14:07:36.384Z,33.5
2022-08-25T14:09:41.916Z,33.3
2022-08-25T14:11:47.742Z,33.2
2022-08-25T14:13:53.083Z,33.4
2022-08-25T14:16:01.577Z,33.2
2022-08-25T14:18:07.351Z,33.3
2022-08-25T14:20:12.610Z,33.5
2022-08-25T14:22:18.094Z,33.4
2022-08-25T14:24:23.611Z,33.3
2022-08-25T14:26:29.825Z,33.2
2022-08-25T14:28:35.361Z,33.4
2022-08-25T14:30:46.003Z,33.3
2022-08-25T14:34:54.961Z,33.2
2022-08-25T14:37:00.472Z,33.3
2022-08-25T14:39:06.035Z,33.4
2022-08-25T14:41:11.604Z,33.4
2022-08-25T14:43:17.155Z,33.5
2022-08-25T14:45:25.687Z,33.5
2022-08-25T14:47:31.168Z,33.6
2022-08-25T14:49:36.655Z,33.4
2022-08-25T14:54:13.045Z,33.6
2022-08-25T14:56:18.534Z,33.6
2022-08-25T14:58:27.120Z,33.6
2022-08-25T15:00:32.683Z,33.5
2022-08-25T15:04:49.136Z,33.2
2022-08-25T15:11:00.251Z,33.3
2022-08-25T15:17:19.830Z,33.1
2022-08-25T15:19:25.358Z,33.3
2022-08-25T15:21:30.900Z,33.2
2022-08-25T15:25:41.962Z,33.1
2022-08-25T15:27:50.503Z,33.2
2022-08-25T15:32:01.577Z,33.3
2022-08-25T15:34:07.118Z,33.2
2022-08-25T15:36:15.376Z,33.2
2022-08-25T15:38:18.169Z,33.4
2022-08-25T15:40:23.728Z,33.4
2022-08-25T15:42:32.267Z,33
2022-08-25T15:44:37.805Z,32.9
2022-08-25T15:46:49.549Z,33.1
2022-08-25T15:47:47.611Z,33.3
2022-08-25T15:49:53.145Z,33.4
2022-08-25T15:51:58.662Z,33.3
2022-08-25T15:54:04.238Z,33.2
2022-08-25T15:56:12.787Z,33.1
2022-08-25T16:00:23.838Z,32.7
2022-08-25T16:02:29.421Z,32.6
2022-08-25T16:04:34.955Z,32.4
2022-08-25T16:06:40.505Z,32.6
2022-08-25T16:10:54.571Z,32.8
2022-08-25T16:13:00.156Z,33
2022-08-25T16:15:05.676Z,33.2
2022-08-25T16:17:11.227Z,33.2
2022-08-25T16:19:16.780Z,33.2
2022-08-25T16:21:22.338Z,33
2022-08-25T16:23:27.893Z,33
2022-08-25T16:25:36.456Z,32.9
2022-08-25T16:27:41.988Z,32.9
2022-08-25T16:29:47.570Z,32.8
2022-08-25T16:31:55.159Z,32.7
2022-08-25T16:33:58.674Z,32.4
2022-08-25T16:36:04.214Z,32.3
2022-08-25T16:38:09.768Z,32.4
2022-08-25T16:40:18.445Z,32.2
2022-08-25T16:42:23.936Z,32.1
2022-08-25T16:44:29.487Z,32.1
2022-08-25T16:51:57.048Z,31.8
2022-08-25T16:56:06.588Z,31.8
2022-08-25T17:02:21.556Z,31.7
2022-08-25T17:04:31.921Z,31.7
2022-08-25T17:06:32.566Z,31.9
2022-08-25T17:08:41.170Z,31.9
2022-08-25T17:10:46.757Z,31.9
2022-08-25T17:17:06.991Z,31.9
2022-08-25T17:19:11.782Z,31.9
2022-08-25T17:21:19.517Z,32
2022-08-25T17:23:23.296Z,31.7
2022-08-25T17:25:28.896Z,31.7
2022-08-25T17:27:34.491Z,31.5
2022-08-25T17:29:40.090Z,31.5
2022-08-25T17:33:51.257Z,31.4
2022-08-25T17:35:56.899Z,31.4
2022-08-25T17:38:06.322Z,31.3
2022-08-25T17:40:11.198Z,31.3
2022-08-25T17:42:16.718Z,31.2
2022-08-25T17:47:32.186Z,31.1
2022-08-25T17:49:37.792Z,31.1
2022-08-25T17:53:52.040Z,30.9
2022-08-25T17:55:57.648Z,30.8
2022-08-25T18:00:08.853Z,30.7
2022-08-25T18:02:14.486Z,30.7
2022-08-25T18:04:20.098Z,30.7
2022-08-25T18:06:28.733Z,30.6
2022-08-25T18:08:35.337Z,30.6
2022-08-25T18:10:39.958Z,30.5
2022-08-25T18:12:45.590Z,30.5
2022-08-25T18:14:51.200Z,30.4
2022-08-25T18:16:56.822Z,30.2
2022-08-25T18:21:11.107Z,30
2022-08-25T18:25:22.378Z,29.8
2022-08-25T18:27:28.794Z,29.6
2022-08-25T18:29:34.437Z,29.5
2022-08-25T18:31:40.141Z,29.4
2022-08-25T18:33:45.709Z,29.3
2022-08-25T18:35:54.370Z,29.2
2022-08-25T18:38:00.215Z,29.2
2022-08-25T18:40:05.733Z,29.1
2022-08-25T18:44:46.448Z,29
2022-08-25T18:46:49.692Z,28.9
2022-08-25T18:48:58.256Z,28.9
2022-08-25T18:51:03.914Z,28.8
2022-08-25T18:53:09.553Z,28.8
2022-08-25T18:55:15.212Z,28.8
2022-08-25T18:57:20.887Z,28.7
2022-08-25T18:59:26.557Z,28.6
2022-08-25T19:03:40.902Z,28.5
2022-08-25T19:05:51.797Z,28.5
2022-08-25T19:07:52.265Z,28.4
2022-08-25T19:09:57.964Z,28.3
2022-08-25T19:12:03.604Z,28.2
2022-08-25T19:14:12.375Z,28.2
2022-08-25T19:16:17.709Z,28.2
2022-08-25T19:18:26.165Z,28.1
2022-08-25T19:24:40.672Z,28
2022-08-25T19:28:52.032Z,27.9
2022-08-25T19:30:57.786Z,27.8
2022-08-25T19:33:11.579Z,27.6
2022-08-25T19:35:12.063Z,27.6
2022-08-25T19:37:17.764Z,27.5
2022-08-25T19:38:33.890Z,27.3
2022-08-25T19:40:27.851Z,27.3
2022-08-25T19:42:38.198Z,27.2
2022-08-25T19:46:47.863Z,26.9
2022-08-25T19:48:53.547Z,26.8
2022-08-25T19:50:59.238Z,26.8
2022-08-25T19:53:05.020Z,26.8
2022-08-25T19:55:10.611Z,26.8
2022-08-25T19:57:28.012Z,26.7
2022-08-25T19:59:22.059Z,26.6
2022-08-25T20:01:30.773Z,26.5
2022-08-25T20:03:36.415Z,26.5
2022-08-25T20:05:42.133Z,26.4
2022-08-25T20:07:47.820Z,26.3
2022-08-25T20:09:53.560Z,26.1
2022-08-25T20:11:59.302Z,26
2022-08-25T20:14:05.021Z,25.9
2022-08-25T20:16:13.683Z,25.7
2022-08-25T20:18:19.395Z,25.6
2022-08-25T20:20:25.114Z,25.5
2022-08-25T20:22:30.825Z,25.4
2022-08-25T20:24:36.563Z,25.3
2022-08-25T20:26:43.071Z,25.2
2022-08-25T20:28:48.015Z,25.1
2022-08-25T20:30:56.834Z,25
2022-08-25T20:33:02.458Z,25
2022-08-25T20:35:09.148Z,24.9
2022-08-25T20:36:12.540Z,24.8
2022-08-25T20:38:18.299Z,24.7
2022-08-25T20:40:25.875Z,24.7
2022-08-25T20:42:29.760Z,24.7
2022-08-25T20:44:41.941Z,24.6
2022-08-25T20:46:44.228Z,24.6
2022-08-25T20:48:49.974Z,24.5
2022-08-25T20:50:57.844Z,24.5
2022-08-25T20:53:01.468Z,24.4
2022-08-25T20:55:07.214Z,24.3
2022-08-25T20:59:21.720Z,24.1
2022-08-25T21:01:27.514Z,24.1
2022-08-25T21:03:33.214Z,23.9
2022-08-25T21:05:38.976Z,23.8
2022-08-25T21:07:44.726Z,23.8
2022-08-25T21:09:50.492Z,23.8
2022-08-25T21:11:56.240Z,23.8
2022-08-25T21:14:05.916Z,23.7
2022-08-25T21:16:10.746Z,23.7
2022-08-25T21:18:16.499Z,23.6
2022-08-25T21:20:22.286Z,23.6
2022-08-25T21:22:28.043Z,23.5
2022-08-25T21:24:33.797Z,23.5
2022-08-25T21:34:04.230Z,23.2
2022-08-25T21:36:09.984Z,23.2
2022-08-25T21:40:21.682Z,23.2
2022-08-25T21:42:30.308Z,23.1
2022-08-25T21:44:36.094Z,23.1
2022-08-25T21:46:41.850Z,23.1
2022-08-25T21:48:47.730Z,23
2022-08-25T21:50:53.413Z,23
2022-08-25T21:55:04.997Z,22.9
2022-08-25T21:57:13.697Z,22.9
2022-08-25T21:59:19.459Z,22.8
2022-08-25T22:01:25.316Z,22.7
2022-08-25T22:03:31.014Z,22.7
2022-08-25T22:05:36.809Z,22.7
2022-08-25T22:07:44.146Z,22.6
2022-08-25T22:09:48.347Z,22.6
2022-08-25T22:11:57.240Z,22.6
2022-08-25T22:14:02.904Z,22.6
2022-08-25T22:16:08.759Z,22.5
2022-08-25T22:18:14.431Z,22.5
2022-08-25T22:20:20.258Z,22.5
2022-08-25T22:22:25.995Z,22.4
2022-08-25T22:24:31.786Z,22.4
2022-08-25T22:26:40.541Z,22.3
2022-08-25T22:28:46.320Z,22.4
2022-08-25T22:30:52.197Z,22.3
2022-08-25T22:33:23.293Z,22.2
2022-08-25T22:39:43.768Z,22.1
2022-08-25T22:41:49.375Z,22.1
2022-08-25T22:43:55.289Z,22.1
2022-08-25T22:46:01.011Z,22.1
2022-08-25T22:48:06.773Z,22.1
2022-08-25T22:50:12.532Z,22
2022-08-25T22:52:18.299Z,22
2022-08-25T22:54:27.052Z,22
2022-08-25T22:56:32.852Z,21.9
2022-08-25T22:58:38.639Z,21.9
2022-08-25T23:00:44.412Z,22
2022-08-25T23:04:56.050Z,21.8
2022-08-25T23:07:01.747Z,21.8
2022-08-25T23:09:10.520Z,21.8
2022-08-25T23:11:16.316Z,21.8
2022-08-25T23:13:33.935Z,21.8
2022-08-25T23:15:27.854Z,21.8
2022-08-25T23:17:33.662Z,21.7
2022-08-25T23:19:39.524Z,21.6
2022-08-25T23:21:45.287Z,21.6
2022-08-25T23:23:54.055Z,21.6
2022-08-25T23:25:59.820Z,21.6
2022-08-25T23:28:05.623Z,21.6
2022-08-25T23:31:15.806Z,21.6
2022-08-25T23:37:36.188Z,21.6
2022-08-25T23:39:41.994Z,21.6
2022-08-25T23:43:53.545Z,21.5
2022-08-25T23:48:05.303Z,21.5
2022-08-25T23:50:10.928Z,21.5
2022-08-25T23:52:19.677Z,21.5
2022-08-25T23:54:30.973Z,21.5
2022-08-25T23:56:31.257Z,21.5
